createdAt,value
2023-09-19T00:00:40.506Z,1.30
2023-09-19T00:03:06.827Z,1.17
2023-09-19T00:05:33.858Z,1.20
2023-09-19T00:08:00.053Z,1.55
2023-09-19T00:10:27.802Z,1.25
2023-09-19T00:12:54.040Z,1.50
2023-09-19T00:15:20.236Z,1.00
2023-09-19T00:17:46.570Z,1.70
2023-09-19T00:20:12.894Z,1.23
2023-09-19T00:22:39.124Z,1.25
2023-09-19T00:25:07.848Z,1.77
2023-09-19T00:27:34.044Z,1.20
2023-09-19T00:30:00.271Z,1.75
2023-09-19T00:32:27.636Z,1.45
2023-09-19T00:34:54.007Z,1.30
2023-09-19T00:37:23.079Z,1.63
2023-09-19T00:39:49.516Z,1.15
2023-09-19T00:42:16.256Z,1.05
2023-09-19T00:44:42.471Z,1.55
2023-09-19T00:47:08.909Z,1.58
2023-09-19T00:49:35.295Z,1.52
2023-09-19T00:52:01.499Z,1.45
2023-09-19T00:54:27.695Z,1.50
2023-09-19T00:56:53.905Z,1.50
2023-09-19T00:59:20.327Z,1.40
2023-09-19T01:01:46.949Z,1.30
2023-09-19T01:04:13.379Z,1.63
2023-09-19T01:06:39.751Z,1.75
2023-09-19T01:09:09.006Z,1.38
2023-09-19T01:11:35.210Z,1.30
2023-09-19T01:14:01.406Z,1.67
2023-09-19T01:16:27.715Z,1.52
2023-09-19T01:18:55.276Z,1.02
2023-09-19T01:21:21.453Z,1.50
2023-09-19T01:23:47.729Z,1.48
2023-09-19T01:26:16.072Z,1.50
2023-09-19T01:28:42.662Z,1.58
2023-09-19T01:31:09.363Z,1.15
2023-09-19T01:33:36.659Z,1.50
2023-09-19T01:36:02.867Z,1.60
2023-09-19T01:38:29.109Z,1.20
2023-09-19T01:40:55.402Z,1.40
2023-09-19T01:43:21.813Z,1.50
2023-09-19T01:45:48.133Z,1.40
2023-09-19T01:48:14.547Z,1.65
2023-09-19T01:50:40.786Z,1.30
2023-09-19T01:53:06.958Z,1.55
2023-09-19T01:55:33.210Z,1.45
2023-09-19T01:57:59.402Z,1.38
2023-09-19T02:00:25.594Z,1.77
2023-09-19T02:02:51.946Z,1.38
2023-09-19T02:05:18.205Z,1.10
2023-09-19T02:07:44.444Z,1.90
2023-09-19T02:10:10.715Z,1.80
2023-09-19T02:15:21.882Z,1.33
2023-09-19T02:17:48.249Z,1.17
2023-09-19T02:20:14.458Z,1.10
2023-09-19T02:22:40.658Z,1.35
2023-09-19T02:25:06.965Z,2.33
2023-09-19T02:27:33.229Z,1.13
2023-09-19T02:29:59.636Z,1.27
2023-09-19T02:32:26.037Z,1.70
2023-09-19T02:34:52.361Z,1.50
2023-09-19T02:37:18.640Z,2.10
2023-09-19T02:39:44.951Z,1.20
2023-09-19T02:42:11.162Z,1.50
2023-09-19T02:44:37.348Z,1.15
2023-09-19T02:47:03.988Z,1.20
2023-09-19T02:49:30.469Z,1.05
2023-09-19T02:51:56.673Z,1.25
2023-09-19T02:57:06.830Z,1.70
2023-09-19T02:59:33.054Z,1.27
2023-09-19T03:01:59.478Z,1.45
2023-09-19T03:04:25.840Z,1.30
2023-09-19T03:06:52.113Z,1.30
2023-09-19T03:09:20.796Z,1.63
2023-09-19T03:11:47.023Z,1.23
2023-09-19T03:14:13.308Z,1.27
2023-09-19T03:16:39.657Z,1.30
2023-09-19T03:19:07.123Z,1.50
2023-09-19T03:21:33.368Z,1.17
2023-09-19T03:23:59.740Z,1.40
2023-09-19T03:26:25.962Z,1.17
2023-09-19T03:28:52.232Z,1.20
2023-09-19T03:31:18.528Z,1.23
2023-09-19T03:33:45.916Z,1.30
2023-09-19T03:36:12.122Z,1.02
2023-09-19T03:38:38.332Z,1.40
2023-09-19T03:41:04.678Z,1.80
2023-09-19T03:43:30.975Z,1.30
2023-09-19T03:45:57.208Z,1.70
2023-09-19T03:48:23.463Z,1.17
2023-09-19T03:50:49.845Z,0.98
2023-09-19T03:53:16.032Z,1.67
2023-09-19T03:55:42.250Z,1.90
2023-09-19T03:58:08.573Z,1.38
2023-09-19T04:00:35.944Z,1.58
2023-09-19T04:03:04.055Z,1.15
2023-09-19T04:05:30.337Z,1.45
2023-09-19T04:07:56.575Z,1.10
2023-09-19T04:10:22.810Z,1.10
2023-09-19T04:20:55.747Z,1.67
2023-09-19T04:23:21.973Z,1.38
2023-09-19T04:25:48.296Z,1.60
2023-09-19T04:28:17.608Z,1.13
2023-09-19T04:30:43.875Z,1.40
2023-09-19T04:33:10.220Z,1.80
2023-09-19T04:35:40.710Z,1.65
2023-09-19T04:38:06.914Z,1.52
2023-09-19T04:40:33.157Z,1.40
2023-09-19T04:42:59.366Z,1.65
2023-09-19T04:45:25.688Z,1.17
2023-09-19T04:47:52.190Z,1.50
2023-09-19T04:50:18.674Z,2.00
2023-09-19T04:52:49.532Z,2.63
2023-09-19T04:55:15.777Z,2.40
2023-09-19T04:57:42.004Z,1.33
2023-09-19T05:00:08.163Z,1.58
2023-09-19T05:02:35.614Z,2.45
2023-09-19T05:05:01.957Z,2.00
2023-09-19T05:07:28.370Z,1.25
2023-09-19T05:09:54.631Z,1.83
2023-09-19T05:12:21.138Z,1.63
2023-09-19T05:14:47.485Z,2.15
2023-09-19T05:17:13.918Z,1.23
2023-09-19T05:19:40.248Z,1.63
2023-09-19T05:22:06.450Z,1.60
2023-09-19T05:24:32.623Z,1.15
2023-09-19T05:26:58.805Z,1.50
2023-09-19T05:29:25.020Z,1.20
2023-09-19T05:31:51.405Z,1.50
2023-09-19T05:34:17.788Z,1.25
2023-09-19T05:36:44.004Z,1.50
2023-09-19T05:39:10.246Z,1.20
2023-09-19T05:41:36.525Z,1.55
2023-09-19T05:44:04.261Z,1.40
2023-09-19T05:46:30.655Z,1.65
2023-09-19T05:48:56.920Z,2.55
2023-09-19T05:51:23.108Z,1.90
2023-09-19T05:53:49.648Z,1.48
2023-09-19T05:56:15.809Z,1.80
2023-09-19T05:58:42.268Z,1.27
2023-09-19T06:01:08.577Z,1.55
2023-09-19T06:03:42.857Z,1.70
2023-09-19T06:06:09.448Z,1.73
2023-09-19T06:08:39.886Z,1.40
2023-09-19T06:11:06.187Z,1.50
2023-09-19T06:13:32.613Z,2.13
2023-09-19T06:16:05.122Z,1.55
2023-09-19T06:18:31.375Z,2.00
2023-09-19T06:21:00.170Z,1.50
2023-09-19T06:23:41.903Z,1.50
2023-09-19T06:29:13.184Z,1.33
2023-09-19T06:34:37.757Z,1.20
2023-09-19T06:39:50.216Z,1.90
2023-09-19T06:42:21.191Z,1.38
2023-09-19T06:53:35.046Z,1.90
2023-09-19T06:59:03.714Z,1.40
2023-09-19T07:21:23.904Z,1.85
2023-09-19T07:23:40.661Z,1.63
2023-09-19T07:26:07.340Z,1.60
2023-09-19T07:34:07.626Z,1.70
2023-09-19T07:39:23.306Z,1.88
2023-09-19T07:50:03.725Z,1.92
2023-09-19T07:52:29.990Z,1.48
2023-09-19T07:54:56.187Z,1.30
2023-09-19T07:57:22.378Z,1.60
2023-09-19T07:59:48.521Z,1.35
2023-09-19T08:02:14.719Z,1.92
2023-09-19T08:04:41.221Z,1.88
2023-09-19T08:07:07.477Z,1.90
2023-09-19T08:09:33.656Z,1.50
2023-09-19T08:11:59.793Z,1.65
2023-09-19T08:14:25.947Z,1.30
2023-09-19T08:16:52.421Z,1.35
2023-09-19T08:19:18.853Z,1.33
2023-09-19T08:21:44.998Z,1.83
2023-09-19T08:24:11.169Z,1.60
2023-09-19T08:26:37.364Z,1.90
2023-09-19T08:31:29.788Z,1.67
2023-09-19T08:33:56.187Z,1.55
2023-09-19T08:36:22.370Z,1.67
2023-09-19T08:38:48.607Z,1.45
2023-09-19T08:41:14.817Z,2.30
2023-09-19T08:43:41.248Z,1.83
2023-09-19T08:46:07.665Z,2.55
2023-09-19T08:48:33.830Z,2.00
2023-09-19T08:51:00.008Z,1.50
2023-09-19T08:53:26.162Z,2.15
2023-09-19T08:55:52.342Z,1.55
2023-09-19T08:58:18.576Z,1.83
2023-09-19T09:00:44.751Z,1.80
2023-09-19T09:03:11.001Z,1.60
2023-09-19T09:05:37.258Z,1.75
2023-09-19T09:08:03.481Z,1.58
2023-09-19T09:10:29.686Z,1.42
2023-09-19T09:12:55.835Z,1.77
2023-09-19T09:15:22.011Z,1.60
2023-09-19T09:17:48.259Z,1.33
2023-09-19T09:20:14.495Z,1.50
2023-09-19T09:22:40.701Z,1.85
2023-09-19T09:25:06.890Z,2.08
2023-09-19T09:27:33.176Z,1.60
2023-09-19T09:29:59.560Z,1.77
2023-09-19T09:32:25.766Z,1.77
2023-09-19T09:34:52.187Z,1.80
2023-09-19T09:37:18.367Z,1.58
2023-09-19T09:39:44.531Z,1.77
2023-09-19T09:42:10.673Z,1.83
2023-09-19T09:44:37.064Z,1.33
2023-09-19T09:47:03.274Z,1.38
2023-09-19T09:49:29.524Z,1.42
2023-09-19T09:51:55.691Z,1.58
2023-09-19T09:54:21.867Z,1.50
2023-09-19T09:56:48.024Z,1.30
2023-09-19T09:59:14.185Z,1.80
2023-09-19T10:01:40.467Z,1.40
2023-09-19T10:04:06.838Z,1.50
2023-09-19T10:06:33.022Z,1.38
2023-09-19T10:08:59.181Z,1.30
2023-09-19T10:11:25.361Z,1.23
2023-09-19T10:13:51.554Z,1.20
2023-09-19T10:16:17.776Z,1.75
2023-09-19T10:18:43.967Z,1.52
2023-09-19T10:21:10.246Z,1.83
2023-09-19T10:23:36.391Z,1.83
2023-09-19T10:26:02.620Z,1.65
2023-09-19T10:28:28.871Z,1.40
2023-09-19T10:33:39.198Z,1.75
2023-09-19T10:36:05.654Z,1.30
2023-09-19T10:38:31.783Z,1.00
2023-09-19T10:40:58.081Z,1.30
2023-09-19T10:43:24.283Z,1.23
2023-09-19T10:45:50.532Z,1.52
2023-09-19T10:48:16.893Z,1.08
2023-09-19T10:50:43.067Z,1.48
2023-09-19T10:55:53.232Z,1.23
2023-09-19T10:58:19.525Z,2.45
2023-09-19T11:00:45.681Z,1.35
2023-09-19T11:11:36.542Z,1.27
2023-09-19T11:14:02.874Z,1.17
2023-09-19T11:16:29.112Z,1.30
2023-09-19T11:18:55.616Z,1.77
2023-09-19T11:24:05.689Z,1.55
2023-09-19T11:26:31.835Z,1.30
2023-09-19T11:28:58.148Z,1.52
2023-09-19T11:31:24.486Z,1.58
2023-09-19T11:33:50.618Z,1.20
2023-09-19T11:36:17.046Z,1.73
2023-09-19T11:38:43.526Z,0.98
2023-09-19T11:41:09.786Z,1.17
2023-09-19T11:43:36.207Z,1.83
2023-09-19T11:46:02.518Z,0.82
2023-09-19T11:48:28.859Z,1.13
2023-09-19T11:50:55.074Z,1.20
2023-09-19T11:53:21.231Z,1.00
2023-09-19T11:55:47.497Z,1.10
2023-09-19T11:58:13.816Z,1.08
2023-09-19T12:06:20.568Z,1.05
2023-09-19T12:14:27.384Z,0.93
2023-09-19T12:16:53.705Z,1.20
2023-09-19T12:19:19.912Z,1.77
2023-09-19T12:21:46.070Z,0.80
2023-09-19T12:24:12.360Z,1.52
2023-09-19T12:26:38.517Z,1.20
2023-09-19T12:29:04.698Z,1.25
2023-09-19T12:31:30.887Z,1.50
2023-09-19T12:33:57.290Z,1.23
2023-09-19T12:36:23.521Z,0.90
2023-09-19T12:38:49.747Z,1.25
2023-09-19T12:41:17.937Z,1.10
2023-09-19T12:43:44.410Z,1.00
2023-09-19T12:46:11.906Z,1.10
2023-09-19T12:48:38.253Z,1.00
2023-09-19T12:51:04.415Z,1.00
2023-09-19T12:53:30.738Z,1.58
2023-09-19T12:55:57.139Z,1.55
2023-09-19T12:58:23.439Z,1.02
2023-09-19T13:00:49.713Z,1.05
2023-09-19T13:03:16.092Z,1.33
2023-09-19T13:05:42.321Z,1.45
2023-09-19T13:08:08.498Z,1.13
2023-09-19T13:10:34.710Z,1.10
2023-09-19T13:13:00.861Z,1.05
2023-09-19T13:15:27.040Z,1.30
2023-09-19T13:17:53.343Z,1.13
2023-09-19T13:20:21.570Z,1.25
2023-09-19T13:22:48.865Z,1.33
2023-09-19T13:25:15.210Z,1.00
2023-09-19T13:27:41.442Z,1.35
2023-09-19T13:30:07.690Z,1.00
2023-09-19T13:32:34.047Z,0.98
2023-09-19T13:35:00.326Z,1.67
2023-09-19T13:37:26.509Z,1.25
2023-09-19T13:39:52.720Z,0.90
2023-09-19T13:42:18.892Z,0.85
2023-09-19T13:44:45.091Z,1.30
2023-09-19T13:47:11.459Z,1.20
2023-09-19T13:49:37.834Z,1.40
2023-09-19T13:52:04.006Z,1.13
2023-09-19T13:54:30.148Z,1.20
2023-09-19T13:56:56.299Z,1.10
2023-09-19T13:59:22.499Z,0.80
2023-09-19T14:01:48.996Z,0.95
2023-09-19T14:04:15.178Z,0.93
2023-09-19T14:06:41.365Z,0.95
2023-09-19T14:09:07.537Z,1.42
2023-09-19T14:11:33.666Z,0.90
2023-09-19T14:13:59.850Z,0.95
2023-09-19T14:53:22.441Z,0.60
2023-09-19T14:55:48.858Z,0.63
2023-09-19T14:58:15.038Z,0.55
2023-09-19T15:00:41.310Z,0.73
2023-09-19T15:03:07.659Z,0.98
2023-09-19T15:05:34.078Z,0.95
2023-09-19T15:08:00.521Z,0.80
2023-09-19T15:10:26.784Z,0.73
2023-09-19T15:12:52.946Z,0.70
2023-09-19T15:15:19.091Z,0.75
2023-09-19T15:17:45.305Z,0.88
2023-09-19T15:20:12.666Z,0.77
2023-09-19T15:22:41.429Z,0.80
2023-09-19T15:25:07.993Z,0.63
2023-09-19T15:27:36.585Z,0.50
2023-09-19T15:30:02.953Z,0.60
2023-09-19T15:32:29.313Z,0.57
2023-09-19T15:34:55.780Z,0.88
2023-09-19T15:37:22.094Z,0.73
2023-09-19T15:39:48.427Z,0.63
2023-09-19T15:42:14.668Z,0.55
2023-09-19T15:44:40.808Z,0.73
2023-09-19T16:01:18.296Z,0.70
2023-09-19T16:03:44.659Z,0.50
2023-09-19T16:06:10.824Z,0.50
2023-09-19T16:08:36.968Z,0.70
2023-09-19T16:11:03.138Z,0.95
2023-09-19T16:13:29.325Z,0.75
2023-09-19T16:15:55.561Z,0.55
2023-09-19T16:18:21.863Z,0.98
2023-09-19T16:20:48.179Z,0.60
2023-09-19T16:23:14.476Z,0.98
2023-09-19T16:25:40.666Z,0.82
2023-09-19T16:28:06.827Z,0.50
2023-09-19T16:30:32.992Z,0.90
2023-09-19T16:32:59.151Z,0.65
2023-09-19T16:35:25.316Z,0.90
2023-09-19T16:37:51.580Z,0.65
2023-09-19T16:40:17.782Z,0.45
2023-09-19T16:42:43.929Z,0.60
2023-09-19T16:45:10.116Z,1.02
2023-09-19T16:47:36.344Z,0.68
2023-09-19T16:50:02.598Z,0.85
2023-09-19T16:52:28.951Z,0.93
2023-09-19T16:54:55.105Z,0.38
2023-09-19T16:57:21.313Z,0.70
2023-09-19T16:59:47.469Z,0.60
2023-09-19T17:02:13.785Z,0.98
2023-09-19T17:04:40.055Z,0.52
2023-09-19T17:07:06.281Z,0.77
2023-09-19T17:09:32.444Z,0.50
2023-09-19T17:11:58.603Z,1.02
2023-09-19T17:14:24.785Z,0.70
2023-09-19T17:16:51.066Z,0.63
2023-09-19T17:19:17.234Z,0.98
2023-09-19T17:21:43.403Z,0.63
2023-09-19T17:24:09.664Z,1.00
2023-09-19T17:26:35.825Z,0.60
2023-09-19T17:29:02.037Z,0.30
2023-09-19T17:31:28.233Z,0.80
2023-09-19T17:33:54.423Z,0.82
2023-09-19T17:36:20.572Z,0.52
2023-09-19T17:38:46.818Z,0.50
2023-09-19T17:41:13.000Z,0.50
2023-09-19T17:43:39.274Z,0.52
2023-09-19T17:46:05.558Z,0.35
2023-09-19T17:48:31.760Z,0.68
2023-09-19T17:50:57.914Z,0.55
2023-09-19T17:53:24.138Z,0.70
2023-09-19T17:55:50.480Z,0.63
2023-09-19T17:58:16.755Z,0.50
2023-09-19T18:03:35.626Z,0.80
2023-09-19T18:06:02.676Z,0.60
2023-09-19T18:08:31.606Z,0.65
2023-09-19T18:10:57.969Z,0.93
2023-09-19T18:13:25.322Z,0.82
2023-09-19T18:15:51.810Z,0.70
2023-09-19T18:18:21.045Z,0.50
2023-09-19T18:20:49.694Z,0.73
2023-09-19T18:23:16.378Z,0.70
2023-09-19T18:25:42.705Z,0.60
2023-09-19T18:28:21.356Z,0.70
2023-09-19T18:30:50.656Z,0.77
2023-09-19T18:34:06.145Z,0.68
2023-09-19T18:38:53.173Z,0.68
2023-09-19T18:41:23.161Z,0.38
2023-09-19T18:43:54.510Z,0.90
2023-09-19T18:49:11.233Z,1.05
2023-09-19T18:51:43.574Z,0.50
2023-09-19T18:54:14.042Z,1.00
2023-09-19T18:59:35.869Z,0.65
2023-09-19T19:05:01.056Z,0.70
2023-09-19T19:07:35.923Z,1.02
2023-09-19T19:10:03.312Z,0.80
2023-09-19T19:12:35.736Z,1.00
2023-09-19T19:15:03.444Z,0.82
2023-09-19T19:23:08.254Z,1.00
2023-09-19T19:31:02.912Z,0.93
2023-09-19T19:33:32.129Z,0.90
2023-09-19T19:36:01.048Z,0.95
2023-09-19T19:38:33.608Z,0.77
2023-09-19T19:43:54.497Z,0.90
2023-09-19T19:46:20.794Z,0.85
2023-09-19T19:48:52.534Z,0.73
2023-09-19T19:51:21.150Z,0.63
2023-09-19T19:53:47.349Z,0.63
2023-09-19T19:56:15.646Z,0.80
2023-09-19T19:58:42.475Z,0.68
2023-09-19T20:01:17.777Z,0.90
2023-09-19T20:03:44.163Z,1.05
2023-09-19T20:06:12.713Z,1.20
2023-09-19T20:08:41.006Z,0.80
2023-09-19T20:11:16.883Z,0.77
2023-09-19T20:13:44.550Z,0.70
2023-09-19T20:16:12.685Z,0.60
2023-09-19T20:18:39.200Z,0.82
2023-09-19T20:21:05.575Z,0.80
2023-09-19T20:23:34.983Z,0.95
2023-09-19T20:26:05.195Z,1.00
2023-09-19T20:28:32.972Z,0.93
2023-09-19T20:31:02.756Z,1.85
2023-09-19T20:33:34.674Z,1.17
2023-09-19T20:36:03.077Z,1.38
2023-09-19T20:38:30.550Z,1.00
2023-09-19T20:40:57.031Z,0.68
2023-09-19T20:43:23.299Z,0.70
2023-09-19T20:45:49.656Z,1.27
2023-09-19T20:51:00.033Z,1.00
2023-09-19T20:53:26.289Z,0.95
2023-09-19T20:55:52.575Z,1.00
2023-09-19T20:58:19.058Z,1.10
2023-09-19T21:00:49.856Z,0.77
2023-09-19T21:03:20.413Z,0.82
2023-09-19T21:05:46.696Z,0.85
2023-09-19T21:08:13.322Z,0.88
2023-09-19T21:10:46.515Z,1.10
2023-09-19T21:13:16.406Z,0.70
2023-09-19T21:15:47.901Z,0.73
2023-09-19T21:18:18.141Z,1.15
2023-09-19T21:20:44.419Z,1.00
2023-09-19T21:23:12.957Z,0.80
2023-09-19T21:25:40.515Z,1.20
2023-09-19T21:28:06.726Z,0.60
2023-09-19T21:30:40.065Z,0.75
2023-09-19T21:33:07.453Z,0.80
2023-09-19T21:35:33.743Z,1.10
2023-09-19T21:37:59.968Z,1.02
2023-09-19T21:40:26.201Z,0.90
2023-09-19T21:42:52.409Z,1.00
2023-09-19T21:45:18.645Z,1.20
2023-09-19T21:47:44.947Z,1.25
2023-09-19T21:50:11.346Z,1.02
2023-09-19T21:52:37.541Z,0.80
2023-09-19T21:55:03.827Z,1.02
2023-09-19T21:57:30.082Z,0.88
2023-09-19T21:59:56.296Z,0.70
2023-09-19T22:02:22.849Z,1.15
2023-09-19T22:04:51.697Z,0.80
2023-09-19T22:07:18.327Z,1.23
2023-09-19T22:09:44.743Z,0.80
2023-09-19T22:12:11.037Z,1.23
2023-09-19T22:14:37.286Z,1.00
2023-09-19T22:17:04.701Z,1.13
2023-09-19T22:19:34.198Z,0.73
2023-09-19T22:22:03.395Z,1.00
2023-09-19T22:24:29.663Z,1.42
2023-09-19T22:26:58.040Z,1.63
2023-09-19T22:29:37.606Z,0.90
2023-09-19T22:32:15.564Z,0.98
2023-09-19T22:34:57.346Z,0.88
2023-09-19T22:37:25.058Z,1.02
2023-09-19T22:39:51.402Z,1.20
2023-09-19T22:42:17.776Z,1.00
2023-09-19T22:44:51.560Z,1.23
2023-09-19T22:47:20.949Z,1.00
2023-09-19T22:49:49.331Z,1.15
2023-09-19T22:52:15.572Z,1.05
2023-09-19T22:54:41.749Z,0.85
2023-09-19T22:57:07.945Z,1.27
2023-09-19T22:59:34.373Z,0.98
2023-09-19T23:02:00.730Z,1.40
2023-09-19T23:04:27.149Z,1.13
2023-09-19T23:06:53.856Z,1.20
2023-09-19T23:09:20.225Z,1.20
2023-09-19T23:11:47.737Z,1.30
2023-09-19T23:14:14.089Z,1.15
2023-09-19T23:16:40.290Z,1.30
2023-09-19T23:19:10.684Z,1.60
2023-09-19T23:21:37.025Z,1.15
2023-09-19T23:24:05.359Z,0.98
2023-09-19T23:26:32.837Z,1.05
2023-09-19T23:28:59.162Z,1.00
2023-09-19T23:31:25.418Z,1.05
2023-09-19T23:33:51.834Z,1.10
2023-09-19T23:36:20.033Z,1.27
2023-09-19T23:38:46.378Z,1.30
2023-09-19T23:41:16.968Z,1.35
2023-09-19T23:43:43.292Z,1.30
2023-09-19T23:46:11.127Z,1.10
2023-09-19T23:48:40.377Z,1.20
2023-09-19T23:51:09.275Z,1.15
2023-09-19T23:53:44.297Z,1.17
2023-09-19T23:56:19.129Z,1.48
2023-09-19T23:58:45.648Z,0.90
